Time;durP1;ratioP1;P1;durP2;ratioP2;P2;SDS_P1;SDS_P2;PMS_P1;PMS_P2;Temp;Humidity;BMP_temperature;BMP_pressure;BME280_temperature;BME280_humidity;BME280_pressure;Samples;Min_cycle;Max_cycle;Signal;HPM_P1;HPM_P2
2023/09/02 00:00:31;;;;;;;10.23;6.97;;;16.40;99.90;;;;;;5069745;28;20262;-73
2023/09/02 00:02:57;;;;;;;11.93;6.50;;;16.40;99.90;;;;;;5063792;28;20203;-73
2023/09/02 00:05:23;;;;;;;9.82;6.53;;;16.40;99.90;;;;;;5064715;28;20219;-72
2023/09/02 00:07:49;;;;;;;8.70;6.13;;;16.40;99.90;;;;;;5061700;28;20462;-73
2023/09/02 00:10:15;;;;;;;10.90;7.03;;;16.30;99.90;;;;;;5061302;28;20209;-73
2023/09/02 00:12:41;;;;;;;9.45;7.03;;;16.40;99.90;;;;;;5074502;28;20661;-72
2023/09/02 00:15:07;;;;;;;12.52;7.07;;;16.30;99.90;;;;;;5077810;28;20215;-71
2023/09/02 00:17:35;;;;;;;10.40;6.97;;;16.30;99.90;;;;;;5075506;28;20206;-71
2023/09/02 00:20:04;;;;;;;11.77;6.55;;;16.30;99.90;;;;;;5053961;28;20222;-72
2023/09/02 00:22:31;;;;;;;9.70;6.88;;;16.30;99.90;;;;;;5070248;28;20202;-73
2023/09/02 00:24:56;;;;;;;11.98;7.47;;;16.30;99.90;;;;;;5067775;28;20174;-73
2023/09/02 00:27:22;;;;;;;12.95;7.10;;;16.30;99.90;;;;;;5070895;28;20221;-70
2023/09/02 00:29:48;;;;;;;11.48;7.43;;;16.20;99.90;;;;;;5068973;28;20250;-72
2023/09/02 00:32:13;;;;;;;12.52;7.57;;;16.20;99.90;;;;;;5069699;28;20223;-73
2023/09/02 00:34:39;;;;;;;10.70;7.03;;;16.20;99.90;;;;;;5069428;28;20246;-72
2023/09/02 00:37:05;;;;;;;12.68;8.10;;;16.10;99.90;;;;;;5065418;28;20179;-72
2023/09/02 00:39:31;;;;;;;12.02;7.82;;;16.10;99.90;;;;;;5068483;28;20202;-73
2023/09/02 00:41:59;;;;;;;9.75;7.68;;;16.10;99.90;;;;;;5062406;28;20712;-73
2023/09/02 00:44:25;;;;;;;10.32;7.97;;;16.10;99.90;;;;;;5047263;28;20624;-73
2023/09/02 00:46:51;;;;;;;14.45;7.25;;;16.10;99.90;;;;;;5062352;28;20684;-73
2023/09/02 00:49:17;;;;;;;12.73;6.97;;;16.10;99.90;;;;;;5050614;28;20191;-73
2023/09/02 00:51:43;;;;;;;12.38;6.78;;;16.10;99.90;;;;;;5066525;28;20182;-73
2023/09/02 00:54:08;;;;;;;11.30;6.28;;;16.10;99.90;;;;;;5073017;28;20631;-73
2023/09/02 00:56:37;;;;;;;11.35;6.65;;;16.10;99.90;;;;;;5073112;28;20233;-73
2023/09/02 00:59:04;;;;;;;14.63;7.57;;;16.00;99.90;;;;;;5074363;28;20215;-73
2023/09/02 01:01:33;;;;;;;12.20;7.15;;;16.00;99.90;;;;;;5068254;28;20198;-74
2023/09/02 01:03:59;;;;;;;11.02;7.38;;;16.00;99.90;;;;;;5073045;28;20171;-71
2023/09/02 01:06:25;;;;;;;9.18;7.05;;;15.90;99.90;;;;;;5074457;28;20208;-72
2023/09/02 01:08:51;;;;;;;10.90;7.10;;;15.90;99.90;;;;;;5068404;28;20207;-73
2023/09/02 01:11:17;;;;;;;10.15;6.63;;;15.90;99.90;;;;;;5068332;28;20215;-73
2023/09/02 01:13:43;;;;;;;9.50;7.28;;;15.90;99.90;;;;;;5062848;28;20211;-74
2023/09/02 01:16:09;;;;;;;9.18;6.63;;;16.00;99.90;;;;;;5065967;28;20176;-73
2023/09/02 01:18:36;;;;;;;11.32;6.95;;;16.00;99.90;;;;;;5068786;28;20222;-73
2023/09/02 01:21:20;;;;;;;9.70;7.32;;;16.00;99.90;;;;;;5045473;28;20195;-73
2023/09/02 01:24:06;;;;;;;8.68;6.70;;;15.90;99.90;;;;;;5064252;28;20241;-73
2023/09/02 01:27:02;;;;;;;10.75;7.40;;;15.90;99.90;;;;;;5064326;28;20199;-73
2023/09/02 01:29:30;;;;;;;13.25;7.57;;;15.80;99.90;;;;;;5061886;28;20202;-74
2023/09/02 01:31:56;;;;;;;11.07;6.90;;;15.80;99.90;;;;;;5065133;28;20264;-73
2023/09/02 01:34:23;;;;;;;10.40;7.40;;;15.80;99.90;;;;;;5079146;28;20682;-72
2023/09/02 01:36:52;;;;;;;8.88;6.97;;;15.80;99.90;;;;;;5076810;28;20293;-71
2023/09/02 01:39:22;;;;;;;12.38;7.55;;;15.80;99.90;;;;;;5075715;28;20215;-73
2023/09/02 01:41:50;;;;;;;10.82;7.75;;;15.70;99.90;;;;;;5074264;28;20256;-73
2023/09/02 01:44:17;;;;;;;9.02;6.82;;;15.70;99.90;;;;;;5054828;28;20760;-73
2023/09/02 01:46:43;;;;;;;9.13;6.78;;;15.70;99.90;;;;;;5072280;28;20207;-73
2023/09/02 01:49:09;;;;;;;10.30;7.25;;;15.70;99.90;;;;;;5068748;28;20709;-73
2023/09/02 01:51:35;;;;;;;9.13;7.43;;;15.70;99.90;;;;;;5069917;28;20175;-72
2023/09/02 01:54:01;;;;;;;10.82;7.53;;;15.70;99.90;;;;;;5064895;28;20207;-74
2023/09/02 01:56:27;;;;;;;7.63;6.47;;;15.70;99.90;;;;;;5069155;28;20199;-74
2023/09/02 01:58:53;;;;;;;11.15;7.47;;;15.70;99.90;;;;;;5063558;28;20298;-71
2023/09/02 02:01:19;;;;;;;9.18;7.38;;;15.70;99.90;;;;;;5067836;28;25338;-74
2023/09/02 02:03:56;;;;;;;12.88;8.07;;;15.60;99.90;;;;;;5067213;28;20216;-73
2023/09/02 02:06:24;;;;;;;10.27;7.38;;;15.60;99.90;;;;;;5063982;28;20222;-71
2023/09/02 02:09:02;;;;;;;9.70;6.65;;;15.60;99.90;;;;;;5063615;28;20207;-71
2023/09/02 02:11:29;;;;;;;10.88;7.80;;;15.60;99.90;;;;;;5067462;28;20241;-73
2023/09/02 02:14:03;;;;;;;12.57;8.05;;;15.50;99.90;;;;;;5080399;28;20695;-73
2023/09/02 02:16:30;;;;;;;10.00;7.75;;;15.50;99.90;;;;;;5081993;28;20569;-73
2023/09/02 02:18:56;;;;;;;8.40;6.75;;;15.50;99.90;;;;;;5074099;28;20199;-73
2023/09/02 02:21:22;;;;;;;11.43;8.23;;;15.50;99.90;;;;;;5078094;28;20210;-73
2023/09/02 02:23:48;;;;;;;10.38;7.35;;;15.50;99.90;;;;;;5075710;28;20203;-72
2023/09/02 02:26:15;;;;;;;10.43;7.25;;;15.60;99.90;;;;;;5073902;28;20207;-73
2023/09/02 02:28:41;;;;;;;12.23;8.00;;;15.60;99.90;;;;;;5074076;28;20210;-73
2023/09/02 02:31:07;;;;;;;12.68;8.70;;;15.60;99.90;;;;;;5069900;28;20182;-70
2023/09/02 02:33:32;;;;;;;11.55;8.10;;;15.50;99.90;;;;;;5072977;28;20178;-73
2023/09/02 02:35:58;;;;;;;11.00;7.75;;;15.40;99.90;;;;;;5067712;28;20246;-73
2023/09/02 02:38:24;;;;;;;10.35;8.55;;;15.40;99.90;;;;;;5067419;28;20215;-73
2023/09/02 02:40:49;;;;;;;15.27;8.20;;;15.40;99.90;;;;;;5067943;28;20264;-71
2023/09/02 02:43:15;;;;;;;11.35;7.80;;;15.40;99.90;;;;;;5065245;28;20179;-73
2023/09/02 02:45:41;;;;;;;12.57;7.80;;;15.40;99.90;;;;;;5066087;28;20228;-73
2023/09/02 02:48:12;;;;;;;13.25;8.95;;;15.30;99.90;;;;;;5043033;28;20226;-71
2023/09/02 02:50:38;;;;;;;11.70;8.07;;;15.30;99.90;;;;;;5069005;28;20640;-71
2023/09/02 02:53:05;;;;;;;12.15;8.75;;;15.30;99.90;;;;;;5079484;28;20215;-73
2023/09/02 02:55:31;;;;;;;12.48;8.32;;;15.30;99.90;;;;;;5082064;28;20198;-73
2023/09/02 02:57:57;;;;;;;11.02;7.57;;;15.30;99.90;;;;;;5077690;28;20182;-73
2023/09/02 03:00:22;;;;;;;10.93;8.15;;;15.30;99.90;;;;;;5077383;28;20222;-73
2023/09/02 03:02:51;;;;;;;11.23;7.72;;;15.30;99.90;;;;;;5075637;28;20207;-72
2023/09/02 03:05:19;;;;;;;10.63;8.63;;;15.30;99.90;;;;;;5073753;28;20693;-73
2023/09/02 03:07:45;;;;;;;11.13;8.45;;;15.20;99.90;;;;;;5073266;28;20708;-73
2023/09/02 03:10:11;;;;;;;10.93;7.55;;;15.20;99.90;;;;;;5071674;28;20175;-72
2023/09/02 03:12:36;;;;;;;12.38;8.20;;;15.20;99.90;;;;;;5066258;28;20178;-72
2023/09/02 03:15:03;;;;;;;13.77;8.30;;;15.20;99.90;;;;;;5067795;28;20211;-72
2023/09/02 03:17:29;;;;;;;11.32;8.40;;;15.20;99.90;;;;;;5049346;28;20202;-73
2023/09/02 03:19:54;;;;;;;15.27;9.68;;;15.20;99.90;;;;;;5066432;28;20230;-73
2023/09/02 03:22:20;;;;;;;10.77;7.90;;;15.20;99.90;;;;;;5065334;28;20218;-73
2023/09/02 03:24:45;;;;;;;11.90;9.05;;;15.20;99.90;;;;;;5065548;28;20206;-73
2023/09/02 03:27:11;;;;;;;14.82;9.27;;;15.20;99.90;;;;;;5061264;28;20678;-72
2023/09/02 03:29:37;;;;;;;14.20;9.52;;;15.20;99.90;;;;;;5064272;28;20581;-74
2023/09/02 03:32:02;;;;;;;12.75;8.93;;;15.20;99.90;;;;;;5074886;28;20218;-73
2023/09/02 03:34:28;;;;;;;13.73;9.38;;;15.10;99.90;;;;;;5080312;28;20263;-73
2023/09/02 03:36:54;;;;;;;14.80;9.38;;;15.10;99.90;;;;;;5077955;28;20597;-72
2023/09/02 03:39:19;;;;;;;17.95;10.35;;;15.20;99.90;;;;;;5076132;28;20250;-73
2023/09/02 03:41:45;;;;;;;13.77;9.43;;;15.10;99.90;;;;;;5071232;28;20581;-73
2023/09/02 03:44:11;;;;;;;12.32;8.50;;;15.10;99.90;;;;;;5072163;28;20202;-72
2023/09/02 03:46:36;;;;;;;12.57;9.10;;;15.10;99.90;;;;;;5071803;28;20724;-71
2023/09/02 03:49:02;;;;;;;14.10;8.95;;;15.00;99.90;;;;;;5052372;28;20207;-73
2023/09/02 03:51:28;;;;;;;11.30;8.77;;;15.00;99.90;;;;;;5072185;28;20661;-73
2023/09/02 03:53:54;;;;;;;12.52;9.07;;;15.00;99.90;;;;;;5068701;28;20231;-73
2023/09/02 03:56:20;;;;;;;14.75;10.10;;;15.00;99.90;;;;;;5069386;28;20420;-74
2023/09/02 03:58:45;;;;;;;11.07;8.88;;;15.00;99.90;;;;;;5067116;28;20293;-73
2023/09/02 04:01:12;;;;;;;12.07;9.35;;;15.00;99.90;;;;;;5062617;28;20187;-71
2023/09/02 04:03:38;;;;;;;12.43;8.90;;;15.00;99.90;;;;;;5065752;28;20175;-73
2023/09/02 04:06:04;;;;;;;11.95;9.55;;;15.00;99.90;;;;;;5061078;28;20196;-73
2023/09/02 04:08:39;;;;;;;10.38;8.38;;;14.90;99.90;;;;;;5062236;28;20211;-73
2023/09/02 04:11:04;;;;;;;12.95;9.07;;;15.00;99.90;;;;;;5060778;28;20203;-73
2023/09/02 04:13:30;;;;;;;13.45;8.38;;;14.90;99.90;;;;;;5079690;28;20205;-74
2023/09/02 04:16:02;;;;;;;14.73;9.05;;;14.90;99.90;;;;;;5077481;28;20532;-71
2023/09/02 04:18:30;;;;;;;14.00;8.52;;;15.00;99.90;;;;;;5073715;28;20645;-73
2023/09/02 04:20:56;;;;;;;14.60;9.07;;;14.90;99.90;;;;;;5068606;28;20337;-73
2023/09/02 04:23:22;;;;;;;14.70;8.55;;;14.90;99.90;;;;;;5068898;28;20722;-73
2023/09/02 04:25:49;;;;;;;17.17;9.60;;;15.00;99.90;;;;;;5067454;28;20289;-73
2023/09/02 04:28:15;;;;;;;14.43;9.05;;;15.00;99.90;;;;;;5064280;28;20239;-73
2023/09/02 04:30:42;;;;;;;11.63;8.43;;;15.10;99.90;;;;;;5066865;28;20668;-73
2023/09/02 04:33:08;;;;;;;15.07;8.75;;;15.10;99.90;;;;;;5063267;28;20206;-73
2023/09/02 04:35:38;;;;;;;10.82;8.50;;;15.10;99.90;;;;;;5064647;28;20207;-73
2023/09/02 04:38:05;;;;;;;12.95;8.55;;;15.10;99.90;;;;;;5062277;28;20286;-73
2023/09/02 04:40:31;;;;;;;14.52;9.18;;;15.10;99.90;;;;;;5063416;28;20294;-73
2023/09/02 04:42:57;;;;;;;13.15;8.35;;;15.20;99.90;;;;;;5061949;28;20189;-73
2023/09/02 04:45:23;;;;;;;11.45;7.78;;;15.30;99.90;;;;;;5060989;28;20290;-73
2023/09/02 04:47:49;;;;;;;11.00;8.25;;;15.90;99.90;;;;;;5061307;28;20223;-70
2023/09/02 04:50:15;;;;;;;11.90;8.52;;;16.70;99.90;;;;;;5055549;28;20211;-73
2023/09/02 04:52:44;;;;;;;11.57;7.47;;;17.40;99.90;;;;;;5069593;28;20252;-73
2023/09/02 04:55:10;;;;;;;14.05;8.80;;;17.90;99.90;;;;;;5072265;28;20653;-70
2023/09/02 04:57:36;;;;;;;11.27;7.80;;;18.00;99.90;;;;;;5064801;28;20244;-73
2023/09/02 05:00:02;;;;;;;8.52;6.85;;;17.50;99.90;;;;;;5067897;28;20211;-73
2023/09/02 05:02:27;;;;;;;9.40;7.10;;;17.80;99.90;;;;;;5066245;28;20204;-73
2023/09/02 05:04:53;;;;;;;10.45;7.05;;;17.70;99.90;;;;;;5066843;28;20268;-73
2023/09/02 05:07:19;;;;;;;8.40;6.85;;;17.80;99.90;;;;;;5064346;28;20216;-74
2023/09/02 05:09:44;;;;;;;9.75;7.53;;;17.60;99.90;;;;;;5066244;28;20183;-74
2023/09/02 05:12:10;;;;;;;9.93;7.28;;;17.40;99.90;;;;;;5063052;28;20242;-74
2023/09/02 05:14:37;;;;;;;11.73;7.38;;;17.30;99.90;;;;;;5046631;28;20211;-73
2023/09/02 05:17:03;;;;;;;10.85;7.95;;;17.10;99.90;;;;;;5062268;28;20203;-73
2023/09/02 05:19:28;;;;;;;10.38;7.13;;;17.20;99.90;;;;;;5063316;28;20227;-73
2023/09/02 05:21:56;;;;;;;10.68;7.32;;;17.50;99.90;;;;;;5062613;28;20561;-73
2023/09/02 05:24:22;;;;;;;12.35;6.95;;;18.90;99.90;;;;;;5060502;28;20212;-74
2023/09/02 05:26:48;;;;;;;10.85;6.60;;;19.80;99.90;;;;;;5043136;28;20203;-72
2023/09/02 05:29:14;;;;;;;8.75;6.47;;;20.00;99.90;;;;;;5040368;28;20307;-73
2023/09/02 05:31:40;;;;;;;7.55;5.80;;;21.00;99.90;;;;;;5065206;28;20248;-74
2023/09/02 05:34:05;;;;;;;10.70;7.13;;;22.10;99.90;;;;;;5063666;28;20187;-75
2023/09/02 05:36:31;;;;;;;7.93;5.70;;;23.30;99.90;;;;;;5071527;28;20207;-75
2023/09/02 05:38:57;;;;;;;7.00;5.57;;;24.00;99.90;;;;;;5070857;28;20241;-74
2023/09/02 05:41:24;;;;;;;8.02;5.32;;;24.50;99.90;;;;;;5070135;28;20234;-74
2023/09/02 05:43:50;;;;;;;7.75;6.20;;;25.00;99.90;;;;;;5070398;28;20214;-73
2023/09/02 05:46:15;;;;;;;9.05;5.85;;;25.50;99.90;;;;;;5050305;28;20179;-74
2023/09/02 05:48:41;;;;;;;9.73;5.90;;;25.90;99.90;;;;;;5070783;28;20214;-74
2023/09/02 05:51:07;;;;;;;6.38;4.47;;;25.40;99.90;;;;;;5067721;28;20282;-74
2023/09/02 05:53:32;;;;;;;7.13;4.65;;;25.70;99.90;;;;;;5067410;28;20248;-75
2023/09/02 05:55:58;;;;;;;6.75;4.70;;;25.80;99.90;;;;;;5069675;28;20207;-74
2023/09/02 05:58:25;;;;;;;5.88;3.80;;;26.20;99.90;;;;;;5065050;28;20216;-74
2023/09/02 06:00:51;;;;;;;6.13;4.30;;;26.90;99.90;;;;;;5067164;28;20167;-73
2023/09/02 06:03:16;;;;;;;6.47;4.32;;;27.10;99.90;;;;;;5063140;28;20231;-75
2023/09/02 06:05:42;;;;;;;6.57;4.13;;;27.50;99.90;;;;;;5065139;28;20256;-74
2023/09/02 06:08:07;;;;;;;7.13;3.72;;;27.80;99.90;;;;;;5061718;28;20207;-75
2023/09/02 06:10:33;;;;;;;5.40;3.80;;;28.10;99.90;;;;;;5064333;28;20199;-76
2023/09/02 06:12:59;;;;;;;4.75;3.65;;;28.50;99.90;;;;;;5072871;28;20171;-74
2023/09/02 06:15:24;;;;;;;5.47;3.83;;;28.90;99.90;;;;;;5071436;28;20553;-75
2023/09/02 06:17:50;;;;;;;6.55;3.85;;;28.70;99.90;;;;;;5060190;28;20727;-74
2023/09/02 06:20:16;;;;;;;3.92;3.50;;;28.70;99.90;;;;;;5070369;28;20596;-75
2023/09/02 06:22:44;;;;;;;5.70;3.83;;;28.70;99.90;;;;;;5070365;28;20206;-75
2023/09/02 06:25:10;;;;;;;4.95;3.75;;;29.10;99.90;;;;;;5068213;28;20561;-73
2023/09/02 06:27:36;;;;;;;5.93;3.78;;;28.90;99.90;;;;;;5069235;28;20190;-75
2023/09/02 06:30:02;;;;;;;6.47;3.63;;;29.30;99.90;;;;;;5070314;28;20205;-76
2023/09/02 06:32:28;;;;;;;4.45;3.70;;;29.40;99.90;;;;;;5066401;28;20213;-76
2023/09/02 06:34:54;;;;;;;8.10;4.57;;;29.90;99.90;;;;;;5067453;28;20648;-75
2023/09/02 06:37:19;;;;;;;5.03;3.97;;;30.50;99.90;;;;;;5063896;28;20227;-76
2023/09/02 06:39:45;;;;;;;6.50;4.30;;;29.80;99.90;;;;;;5051631;28;20240;-74
2023/09/02 06:42:10;;;;;;;5.38;3.63;;;29.70;99.90;;;;;;5062920;28;20218;-76
2023/09/02 06:44:36;;;;;;;4.88;3.83;;;29.40;99.90;;;;;;5064665;28;20623;-76
2023/09/02 06:47:03;;;;;;;4.93;3.55;;;30.00;99.90;;;;;;5061939;28;20206;-76
2023/09/02 06:49:32;;;;;;;5.25;3.30;;;29.90;99.90;;;;;;5063475;28;20207;-75
2023/09/02 06:51:58;;;;;;;3.60;3.22;;;30.80;99.60;;;;;;5068348;28;20669;-75
2023/09/02 06:54:23;;;;;;;6.47;3.53;;;30.60;99.30;;;;;;5070771;28;20217;-75
2023/09/02 06:56:50;;;;;;;6.40;3.78;;;30.80;99.00;;;;;;5071808;28;20689;-74
2023/09/02 06:59:16;;;;;;;7.13;3.55;;;31.10;98.30;;;;;;5071990;28;20704;-74
2023/09/02 07:01:41;;;;;;;3.97;3.50;;;31.30;97.80;;;;;;5069745;28;20224;-76
2023/09/02 07:04:07;;;;;;;5.35;3.78;;;31.80;96.60;;;;;;5072541;28;20265;-73
2023/09/02 07:06:33;;;;;;;6.32;4.30;;;31.20;97.10;;;;;;5067990;28;20838;-72
2023/09/02 07:08:59;;;;;;;5.07;3.65;;;30.80;97.70;;;;;;5067811;28;20708;-72
2023/09/02 07:11:24;;;;;;;5.07;3.90;;;30.30;97.80;;;;;;5065313;28;20203;-74
2023/09/02 07:13:50;;;;;;;5.32;3.95;;;30.30;98.20;;;;;;5066700;28;20224;-72
2023/09/02 07:16:16;;;;;;;4.32;3.88;;;30.50;97.50;;;;;;5065324;28;20608;-72
2023/09/02 07:18:41;;;;;;;5.03;4.53;;;30.30;97.40;;;;;;5068091;28;20203;-73
2023/09/02 07:21:07;;;;;;;5.68;4.00;;;30.40;97.30;;;;;;5063482;28;20206;-74
2023/09/02 07:23:33;;;;;;;4.63;3.45;;;31.50;96.70;;;;;;5064360;28;20206;-73
2023/09/02 07:26:00;;;;;;;5.90;4.13;;;32.30;95.60;;;;;;5062442;28;20202;-73
2023/09/02 07:28:26;;;;;;;4.20;3.80;;;32.20;94.40;;;;;;5061184;28;20710;-73
2023/09/02 07:30:52;;;;;;;7.22;4.45;;;32.40;94.30;;;;;;5072022;28;20618;-73
2023/09/02 07:33:19;;;;;;;7.38;4.20;;;32.10;93.80;;;;;;5070029;28;20209;-74
2023/09/02 07:35:45;;;;;;;5.07;4.50;;;32.20;93.80;;;;;;5070097;28;20572;-73
2023/09/02 07:38:11;;;;;;;4.30;3.90;;;32.50;93.30;;;;;;5052792;28;20203;-74
2023/09/02 07:40:36;;;;;;;4.55;4.13;;;32.70;93.40;;;;;;5050633;28;20221;-73
2023/09/02 07:43:03;;;;;;;5.60;3.90;;;33.00;92.70;;;;;;5065505;28;20276;-71
2023/09/02 07:45:29;;;;;;;5.75;4.13;;;32.60;92.00;;;;;;5066389;28;20207;-72
2023/09/02 07:47:55;;;;;;;5.00;3.70;;;32.90;91.80;;;;;;5054246;28;20218;-73
2023/09/02 07:50:21;;;;;;;6.22;3.30;;;33.10;91.00;;;;;;5066970;28;20215;-73
2023/09/02 07:52:47;;;;;;;5.47;3.55;;;32.70;90.40;;;;;;5067613;28;20202;-73
2023/09/02 07:55:13;;;;;;;4.20;3.25;;;33.30;89.70;;;;;;5049308;28;20218;-72
2023/09/02 07:57:39;;;;;;;5.03;3.50;;;32.50;89.40;;;;;;5065869;28;20205;-75
2023/09/02 08:00:05;;;;;;;3.28;2.78;;;32.20;90.30;;;;;;5065407;28;20200;-75
2023/09/02 08:02:31;;;;;;;3.72;2.72;;;32.10;90.20;;;;;;5064299;28;20215;-75
2023/09/02 08:04:57;;;;;;;3.13;2.60;;;32.30;89.60;;;;;;5044600;28;20203;-76
2023/09/02 08:07:22;;;;;;;3.70;3.15;;;32.50;86.80;;;;;;5059526;28;20219;-79
2023/09/02 08:09:49;;;;;;;5.00;3.53;;;32.50;87.20;;;;;;5062082;28;20206;-75
2023/09/02 08:12:15;;;;;;;4.65;3.58;;;32.20;86.50;;;;;;5061844;28;20206;-76
2023/09/02 08:14:41;;;;;;;4.13;3.58;;;32.10;87.30;;;;;;5065810;28;20219;-78
2023/09/02 08:17:06;;;;;;;4.60;3.28;;;32.90;87.90;;;;;;5062443;28;20301;-73
2023/09/02 08:19:32;;;;;;;3.08;2.28;;;33.70;84.40;;;;;;5063733;28;20217;-73
2023/09/02 08:21:58;;;;;;;3.10;2.33;;;33.50;84.70;;;;;;5061687;28;20183;-72
2023/09/02 08:24:23;;;;;;;3.33;2.10;;;33.40;82.90;;;;;;5059204;28;20746;-71
2023/09/02 08:26:49;;;;;;;3.33;2.58;;;33.20;84.80;;;;;;5062177;28;20415;-73
2023/09/02 08:29:15;;;;;;;4.93;2.50;;;33.10;83.80;;;;;;5061006;28;20715;-73
2023/09/02 08:31:41;;;;;;;4.15;2.30;;;32.90;82.90;;;;;;5055993;28;20205;-72
2023/09/02 08:34:06;;;;;;;2.60;1.88;;;32.10;83.30;;;;;;5061562;28;20568;-74
2023/09/02 08:36:32;;;;;;;2.53;2.17;;;32.50;83.50;;;;;;5044516;28;20178;-73
2023/09/02 08:38:58;;;;;;;3.55;2.17;;;32.80;80.90;;;;;;5063438;28;20292;-73
2023/09/02 08:41:30;;;;;;;5.63;2.70;;;32.60;81.60;;;;;;5060926;28;20286;-73
2023/09/02 08:44:02;;;;;;;2.67;2.20;;;32.30;83.40;;;;;;5059562;28;20199;-72
2023/09/02 08:46:31;;;;;;;3.25;2.03;;;32.10;82.80;;;;;;5045036;28;20203;-73
2023/09/02 08:48:59;;;;;;;2.92;1.73;;;32.00;81.40;;;;;;5060774;28;20218;-72
2023/09/02 08:51:26;;;;;;;4.85;1.95;;;32.00;79.30;;;;;;5062467;28;20624;-72
2023/09/02 08:53:56;;;;;;;2.00;1.60;;;32.00;78.40;;;;;;5059490;28;20206;-73
2023/09/02 08:56:23;;;;;;;4.38;1.70;;;31.90;78.40;;;;;;5059967;28;20208;-72
2023/09/02 08:58:49;;;;;;;2.13;1.92;;;31.60;78.50;;;;;;5061242;28;20229;-72
2023/09/02 09:01:19;;;;;;;1.88;1.55;;;31.50;80.30;;;;;;5060619;28;20168;-72
2023/09/02 09:03:52;;;;;;;3.75;2.08;;;31.60;82.20;;;;;;5045950;28;20668;-74
2023/09/02 09:06:22;;;;;;;4.35;2.42;;;31.50;82.50;;;;;;5051620;28;20218;-71
2023/09/02 09:08:49;;;;;;;3.42;2.00;;;31.30;83.50;;;;;;5043417;28;20216;-72
2023/09/02 09:11:20;;;;;;;5.10;2.45;;;30.70;84.80;;;;;;5067855;28;20214;-73
2023/09/02 09:13:48;;;;;;;3.83;2.17;;;30.40;86.50;;;;;;5049789;28;20202;-73
2023/09/02 09:16:19;;;;;;;2.97;1.85;;;30.60;87.80;;;;;;5047931;28;20183;-72
2023/09/02 09:18:45;;;;;;;3.92;1.75;;;30.50;87.80;;;;;;5066977;28;20578;-73
2023/09/02 09:21:11;;;;;;;5.93;2.55;;;30.00;89.60;;;;;;5054662;28;20210;-75
2023/09/02 09:23:37;;;;;;;7.28;3.35;;;30.30;90.00;;;;;;5067702;28;20210;-74
2023/09/02 09:26:09;;;;;;;3.38;1.92;;;30.30;90.10;;;;;;5051445;28;20649;-72
2023/09/02 09:28:56;;;;;;;3.88;2.75;;;30.20;90.00;;;;;;5053763;28;20202;-73
2023/09/02 09:31:22;;;;;;;3.90;2.55;;;29.90;90.60;;;;;;5069132;28;20210;-75
2023/09/02 09:34:00;;;;;;;4.38;2.33;;;29.50;90.70;;;;;;5065613;28;20220;-71
2023/09/02 09:36:27;;;;;;;5.38;2.80;;;29.40;91.60;;;;;;5069331;28;20331;-75
2023/09/02 09:38:55;;;;;;;6.47;3.42;;;29.50;91.60;;;;;;5064677;28;20285;-74
2023/09/02 09:41:22;;;;;;;4.30;2.40;;;29.40;91.60;;;;;;5061796;28;20294;-73
2023/09/02 09:44:07;;;;;;;4.18;2.42;;;29.20;91.60;;;;;;5068610;28;20245;-74
2023/09/02 09:46:51;;;;;;;8.75;2.45;;;28.80;92.00;;;;;;5064997;28;20260;-74
2023/09/02 09:49:26;;;;;;;6.70;3.85;;;28.70;92.70;;;;;;5056520;28;20203;-72
2023/09/02 09:52:01;;;;;;;3.42;2.40;;;28.40;92.60;;;;;;5058728;28;20194;-74
2023/09/02 09:54:55;;;;;;;6.63;3.67;;;28.20;93.60;;;;;;5056663;28;20678;-75
2023/09/02 09:57:29;;;;;;;4.63;2.53;;;28.40;93.60;;;;;;5055958;28;20326;-73
2023/09/02 09:59:56;;;;;;;3.13;2.00;;;28.50;93.50;;;;;;5050172;28;20283;-74
2023/09/02 10:02:23;;;;;;;3.97;2.03;;;28.40;93.50;;;;;;5050013;28;20202;-74
2023/09/02 10:04:53;;;;;;;4.82;2.30;;;28.20;94.20;;;;;;5058705;28;20223;-74
2023/09/02 10:07:33;;;;;;;3.28;2.08;;;28.00;94.60;;;;;;5053775;28;20222;-73
2023/09/02 10:10:03;;;;;;;7.82;1.58;;;27.80;94.90;;;;;;5057936;28;20576;-73
2023/09/02 10:12:33;;;;;;;3.97;1.50;;;27.60;95.50;;;;;;5055335;28;20211;-74
2023/09/02 10:15:00;;;;;;;4.13;1.90;;;27.70;96.20;;;;;;5050358;28;20211;-72
2023/09/02 10:17:26;;;;;;;4.93;1.75;;;27.90;95.80;;;;;;5057710;28;20211;-72
2023/09/02 10:19:52;;;;;;;2.75;1.70;;;27.60;96.10;;;;;;5041210;28;20599;-73
2023/09/02 10:22:21;;;;;;;3.28;1.95;;;27.20;96.60;;;;;;5056073;28;20180;-74
2023/09/02 10:24:50;;;;;;;5.28;1.98;;;27.10;97.70;;;;;;5055047;28;20172;-73
2023/09/02 10:27:23;;;;;;;3.20;1.80;;;27.00;97.60;;;;;;5054747;28;20583;-74
2023/09/02 10:29:57;;;;;;;6.63;1.67;;;26.80;98.60;;;;;;5057588;28;20199;-73
2023/09/02 10:32:36;;;;;;;4.18;2.20;;;27.10;98.90;;;;;;5055568;28;20732;-75
2023/09/02 10:35:12;;;;;;;2.58;1.52;;;27.00;98.90;;;;;;5058163;28;20211;-77
2023/09/02 10:37:42;;;;;;;5.57;3.15;;;27.10;99.00;;;;;;5056888;28;20353;-78
2023/09/02 10:40:10;;;;;;;4.80;2.33;;;27.20;98.70;;;;;;5059507;28;20776;-74
2023/09/02 10:42:37;;;;;;;6.47;2.08;;;26.90;99.00;;;;;;5058914;28;20175;-76
2023/09/02 10:45:04;;;;;;;2.33;1.60;;;26.40;99.40;;;;;;5041715;28;20199;-76
2023/09/02 10:47:30;;;;;;;3.17;2.00;;;26.20;99.90;;;;;;5047869;28;20212;-76
2023/09/02 10:49:57;;;;;;;3.40;1.80;;;26.10;99.90;;;;;;5058574;28;20225;-76
2023/09/02 10:52:22;;;;;;;3.03;1.77;;;25.90;99.90;;;;;;5062346;28;20678;-75
2023/09/02 10:55:09;;;;;;;2.75;1.88;;;25.70;99.90;;;;;;5063959;28;20214;-76
2023/09/02 10:57:51;;;;;;;4.28;1.75;;;25.50;99.90;;;;;;5063634;28;20208;-76
2023/09/02 11:00:20;;;;;;;2.05;1.77;;;25.60;99.90;;;;;;5063709;28;20215;-76
2023/09/02 11:02:48;;;;;;;3.88;1.60;;;25.80;99.90;;;;;;5052298;28;20691;-75
2023/09/02 11:05:14;;;;;;;3.33;1.73;;;26.10;99.90;;;;;;5059410;28;20290;-76
2023/09/02 11:07:40;;;;;;;3.38;1.92;;;26.00;99.90;;;;;;5061715;28;20637;-77
2023/09/02 11:10:08;;;;;;;2.92;1.38;;;26.10;99.90;;;;;;5063135;28;20297;-76
2023/09/02 11:12:34;;;;;;;3.42;1.33;;;26.30;99.90;;;;;;5060056;28;20167;-76
2023/09/02 11:15:12;;;;;;;5.57;1.58;;;26.30;99.90;;;;;;5064145;28;20200;-75
2023/09/02 11:17:39;;;;;;;3.92;2.10;;;26.40;99.90;;;;;;5062059;28;20211;-76
2023/09/02 11:20:06;;;;;;;6.15;1.98;;;26.50;99.90;;;;;;5061046;28;20392;-76
2023/09/02 11:22:51;;;;;;;2.92;1.70;;;26.50;99.90;;;;;;5060883;28;20236;-75
2023/09/02 11:25:37;;;;;;;4.20;1.60;;;26.80;99.90;;;;;;5056452;28;20180;-76
2023/09/02 11:28:07;;;;;;;3.97;2.47;;;27.10;99.70;;;;;;5043300;28;20203;-75
2023/09/02 11:30:35;;;;;;;5.10;2.00;;;27.20;99.40;;;;;;5063255;28;20175;-76
2023/09/02 11:33:01;;;;;;;2.33;1.77;;;27.30;99.30;;;;;;5058197;28;20283;-75
2023/09/02 11:35:30;;;;;;;3.30;1.42;;;27.40;97.60;;;;;;5061162;28;20287;-76
2023/09/02 11:37:56;;;;;;;2.72;1.73;;;27.40;97.70;;;;;;5061270;28;20252;-77
2023/09/02 11:40:24;;;;;;;3.80;1.98;;;27.50;97.90;;;;;;5045743;28;20219;-76
2023/09/02 11:42:59;;;;;;;2.83;1.40;;;27.60;96.40;;;;;;5064521;28;20175;-76
2023/09/02 11:45:31;;;;;;;2.13;1.30;;;27.10;96.50;;;;;;5061867;28;20220;-76
2023/09/02 11:47:56;;;;;;;4.90;1.70;;;27.00;96.70;;;;;;5060405;28;20273;-76
2023/09/02 11:50:23;;;;;;;2.80;1.60;;;26.90;97.40;;;;;;5060436;28;20685;-76
2023/09/02 11:52:53;;;;;;;2.20;1.38;;;26.50;98.10;;;;;;5057494;28;20216;-76
2023/09/02 11:55:18;;;;;;;3.10;1.60;;;26.40;98.70;;;;;;5061506;28;20692;-76
2023/09/02 11:57:46;;;;;;;2.17;1.35;;;26.20;98.60;;;;;;5059323;28;20277;-76
2023/09/02 12:00:20;;;;;;;4.75;1.50;;;26.30;99.00;;;;;;5039568;28;20767;-76
2023/09/02 12:02:47;;;;;;;4.38;1.77;;;26.50;99.20;;;;;;5060880;28;20214;-76
2023/09/02 12:05:14;;;;;;;3.05;2.05;;;26.80;99.50;;;;;;5055164;28;20199;-74
2023/09/02 12:07:44;;;;;;;4.15;1.55;;;26.70;99.10;;;;;;5058113;28;20226;-74
2023/09/02 12:10:11;;;;;;;7.18;2.38;;;26.80;99.40;;;;;;5041483;28;20267;-76
2023/09/02 12:12:44;;;;;;;3.33;2.28;;;26.70;99.80;;;;;;5061416;28;20182;-74
2023/09/02 12:15:15;;;;;;;4.95;1.80;;;26.50;99.90;;;;;;5059639;28;20268;-73
2023/09/02 12:17:41;;;;;;;5.10;2.13;;;26.30;99.90;;;;;;5059413;28;20215;-74
2023/09/02 12:20:13;;;;;;;2.00;1.70;;;26.00;99.90;;;;;;5061246;28;20226;-74
2023/09/02 12:22:40;;;;;;;5.32;2.33;;;25.70;99.90;;;;;;5059397;28;20207;-74
2023/09/02 12:25:13;;;;;;;2.80;1.80;;;25.50;99.90;;;;;;5059645;28;20175;-74
2023/09/02 12:27:40;;;;;;;3.88;1.63;;;25.20;99.90;;;;;;5041432;28;20276;-74
2023/09/02 12:30:06;;;;;;;2.92;1.70;;;25.00;99.90;;;;;;5061865;28;20304;-74
2023/09/02 12:32:31;;;;;;;3.15;1.55;;;24.90;99.90;;;;;;5058736;28;20207;-74
2023/09/02 12:34:57;;;;;;;2.67;1.65;;;24.70;99.90;;;;;;5063895;28;20321;-75
2023/09/02 12:37:24;;;;;;;5.40;1.90;;;24.70;99.90;;;;;;5059240;28;20306;-73
2023/09/02 12:39:50;;;;;;;4.80;3.03;;;24.50;99.90;;;;;;5060258;28;20565;-74
2023/09/02 12:42:25;;;;;;;4.82;1.75;;;24.40;99.90;;;;;;5061855;28;20682;-74
2023/09/02 12:44:52;;;;;;;1.98;1.70;;;24.30;99.90;;;;;;5057252;28;20747;-73